Time;durP1;ratioP1;P1;durP2;ratioP2;P2;SDS_P1;SDS_P2;PMS_P1;PMS_P2;Temp;Humidity;BMP_temperature;BMP_pressure;BME280_temperature;BME280_humidity;BME280_pressure;Samples;Min_cycle;Max_cycle;Signal;HPM_P1;HPM_P2
2021/12/08 00:00:44;;;;;;;1.23;0.57;;;21.90;30.20;;;;;;5045536;28;20033;-52
2021/12/08 00:03:11;;;;;;;0.65;0.40;;;21.90;30.20;;;;;;5042398;28;20025;-47
2021/12/08 00:05:41;;;;;;;1.92;0.68;;;21.90;30.20;;;;;;5037989;28;20033;-53
2021/12/08 00:08:10;;;;;;;0.85;0.60;;;21.90;30.20;;;;;;5048350;28;20037;-52
2021/12/08 00:13:08;;;;;;;0.98;0.65;;;21.90;30.20;;;;;;5042463;28;20109;-49
2021/12/08 00:15:36;;;;;;;1.40;0.60;;;21.90;30.20;;;;;;5040222;28;20029;-52
2021/12/08 00:18:04;;;;;;;1.50;0.43;;;21.90;30.20;;;;;;5048889;28;20036;-53
2021/12/08 00:20:32;;;;;;;1.15;0.50;;;21.90;30.30;;;;;;5053092;28;20112;-54
2021/12/08 00:22:59;;;;;;;0.98;0.70;;;21.90;30.30;;;;;;5044511;28;20096;-51
2021/12/08 00:25:25;;;;;;;1.00;0.50;;;21.90;30.30;;;;;;5051841;28;20034;-53
2021/12/08 00:27:51;;;;;;;1.33;0.65;;;21.90;30.90;;;;;;5043858;28;20086;-51
2021/12/08 00:30:17;;;;;;;0.70;0.50;;;21.90;30.30;;;;;;5036613;28;20018;-52
2021/12/08 00:32:45;;;;;;;0.50;0.40;;;21.90;30.30;;;;;;5036282;28;20049;-49
2021/12/08 00:35:11;;;;;;;1.27;0.40;;;21.80;30.30;;;;;;5045654;28;20041;-49
2021/12/08 00:37:38;;;;;;;0.80;0.40;;;21.80;30.30;;;;;;5038572;28;20036;-52
2021/12/08 00:40:09;;;;;;;0.60;0.50;;;21.90;30.40;;;;;;5043089;28;20043;-51
2021/12/08 00:42:36;;;;;;;1.02;0.60;;;21.80;30.30;;;;;;5039311;28;20017;-49
2021/12/08 00:45:04;;;;;;;0.88;0.40;;;21.80;30.40;;;;;;5042961;28;20021;-49
2021/12/08 00:47:30;;;;;;;1.45;0.60;;;21.80;30.70;;;;;;5035694;28;20124;-52
2021/12/08 00:49:56;;;;;;;0.45;0.40;;;21.80;30.40;;;;;;5020166;28;20543;-49
2021/12/08 00:52:24;;;;;;;0.70;0.45;;;21.80;30.50;;;;;;5034762;28;20084;-48
2021/12/08 00:54:50;;;;;;;1.35;0.60;;;21.80;30.60;;;;;;5045662;28;20395;-48
2021/12/08 00:57:16;;;;;;;1.08;0.52;;;21.80;30.60;;;;;;5042600;28;20053;-54
2021/12/08 00:59:42;;;;;;;1.17;0.60;;;21.80;30.60;;;;;;5039633;28;20318;-50
2021/12/08 01:02:07;;;;;;;0.70;0.40;;;21.80;30.60;;;;;;5048260;28;20432;-51
2021/12/08 01:04:34;;;;;;;0.93;0.55;;;21.80;30.60;;;;;;5051380;28;20098;-55
2021/12/08 01:07:02;;;;;;;1.27;0.50;;;21.80;30.70;;;;;;5049252;28;20048;-49
2021/12/08 01:09:27;;;;;;;0.65;0.40;;;21.80;30.70;;;;;;5045919;28;20025;-53
2021/12/08 01:11:55;;;;;;;1.13;0.40;;;21.80;30.70;;;;;;5052112;28;20043;-57
2021/12/08 01:14:21;;;;;;;0.85;0.50;;;21.70;30.70;;;;;;5050211;28;20025;-50
2021/12/08 01:16:47;;;;;;;0.60;0.50;;;21.70;30.70;;;;;;5040445;28;20017;-52
2021/12/08 01:19:13;;;;;;;0.57;0.40;;;21.70;30.70;;;;;;5038171;28;20332;-50
2021/12/08 01:21:39;;;;;;;0.93;0.40;;;21.70;30.70;;;;;;5034416;28;20039;-51
2021/12/08 01:24:05;;;;;;;0.88;0.60;;;21.70;30.80;;;;;;5044668;28;20446;-49
2021/12/08 01:26:31;;;;;;;0.90;0.50;;;21.70;30.80;;;;;;5046362;28;20335;-52
2021/12/08 01:28:57;;;;;;;0.70;0.40;;;21.70;30.80;;;;;;5038492;28;20021;-52
2021/12/08 01:31:24;;;;;;;1.38;0.38;;;21.70;30.80;;;;;;5043935;28;20021;-52
2021/12/08 01:33:50;;;;;;;0.90;0.50;;;21.70;30.90;;;;;;5041429;28;20458;-49
2021/12/08 01:36:17;;;;;;;1.25;0.52;;;21.70;30.90;;;;;;5045700;28;20033;-49
2021/12/08 01:38:43;;;;;;;1.10;0.60;;;21.70;31.00;;;;;;5039844;28;20395;-55
2021/12/08 01:41:09;;;;;;;0.80;0.50;;;21.70;31.00;;;;;;5046172;28;20487;-56
2021/12/08 01:45:56;;;;;;;0.82;0.47;;;21.70;31.00;;;;;;5044440;28;20017;-51
2021/12/08 01:46:28;;;;;;;0.90;0.50;;;21.70;31.10;;;;;;5038210;28;20037;-48
2021/12/08 01:48:54;;;;;;;1.20;0.50;;;21.70;31.10;;;;;;5050631;28;20310;-58
2021/12/08 01:51:20;;;;;;;1.27;0.60;;;21.60;31.10;;;;;;5048670;28;20022;-50
2021/12/08 01:53:51;;;;;;;0.80;0.50;;;21.60;31.20;;;;;;5034219;28;20014;-51
2021/12/08 01:56:19;;;;;;;1.17;0.40;;;21.60;31.20;;;;;;5042883;28;20068;-49
2021/12/08 01:58:45;;;;;;;0.77;0.45;;;21.60;31.30;;;;;;5034669;28;20445;-53
2021/12/08 02:01:14;;;;;;;1.30;0.60;;;21.60;31.30;;;;;;5051215;28;20013;-49
2021/12/08 02:03:41;;;;;;;0.95;0.55;;;21.60;31.30;;;;;;5023031;28;20087;-54
2021/12/08 02:06:08;;;;;;;0.50;0.35;;;21.60;31.30;;;;;;5045801;28;20029;-46
2021/12/08 02:08:35;;;;;;;1.45;0.75;;;21.60;31.40;;;;;;5040832;28;20025;-52
2021/12/08 02:11:02;;;;;;;1.30;0.50;;;21.60;31.40;;;;;;5037930;28;20045;-49
2021/12/08 02:13:35;;;;;;;1.23;0.50;;;21.60;31.40;;;;;;5035153;28;20488;-53
2021/12/08 02:16:02;;;;;;;0.63;0.40;;;21.60;31.50;;;;;;5036613;28;20436;-53
2021/12/08 02:18:28;;;;;;;1.05;0.40;;;21.60;31.50;;;;;;5045380;28;20033;-47
2021/12/08 02:20:58;;;;;;;0.68;0.50;;;21.50;31.50;;;;;;5042477;28;20017;-49
2021/12/08 02:23:25;;;;;;;1.23;0.50;;;21.50;31.50;;;;;;5037766;28;20083;-53
2021/12/08 02:25:50;;;;;;;1.05;0.40;;;21.50;31.60;;;;;;5038847;28;20448;-49
2021/12/08 02:28:17;;;;;;;0.50;0.40;;;21.50;31.60;;;;;;5033523;28;20043;-54
2021/12/08 02:49:28;;;;;;;0.55;0.40;;;21.50;31.90;;;;;;5048330;28;20036;-50
2021/12/08 02:51:54;;;;;;;0.60;0.38;;;21.40;31.90;;;;;;5040869;28;20017;-49
2021/12/08 02:54:21;;;;;;;1.13;0.50;;;21.50;31.90;;;;;;5037279;28;20041;-50
2021/12/08 02:56:47;;;;;;;0.40;0.40;;;21.50;32.00;;;;;;5039623;28;20045;-48
2021/12/08 02:59:13;;;;;;;1.13;0.30;;;21.50;32.00;;;;;;5043997;28;20049;-52
2021/12/08 03:01:40;;;;;;;0.77;0.35;;;21.50;32.10;;;;;;5049977;28;20448;-54
2021/12/08 03:04:07;;;;;;;0.68;0.47;;;21.50;32.10;;;;;;5050685;28;20039;-51
2021/12/08 03:06:34;;;;;;;0.47;0.30;;;21.50;32.20;;;;;;5048009;28;20391;-52
2021/12/08 03:09:01;;;;;;;0.45;0.38;;;21.50;32.20;;;;;;5049187;28;20025;-50
2021/12/08 03:11:27;;;;;;;0.47;0.40;;;21.40;32.20;;;;;;5047793;28;20029;-52
2021/12/08 03:14:06;;;;;;;0.52;0.40;;;21.40;32.30;;;;;;5049693;28;20052;-52
2021/12/08 03:16:34;;;;;;;0.73;0.40;;;21.40;32.40;;;;;;5051525;28;20025;-48
2021/12/08 03:19:02;;;;;;;0.93;0.40;;;21.40;32.40;;;;;;5038416;28;20033;-53
2021/12/08 03:21:31;;;;;;;0.73;0.47;;;21.40;32.40;;;;;;5046148;28;20021;-54
2021/12/08 03:26:33;;;;;;;0.50;0.20;;;21.40;32.40;;;;;;5046274;28;20100;-51
2021/12/08 03:29:04;;;;;;;0.95;0.30;;;21.40;32.40;;;;;;5029276;28;20029;-51
2021/12/08 03:31:37;;;;;;;0.43;0.25;;;21.40;32.40;;;;;;5042837;28;20029;-49
2021/12/08 03:34:03;;;;;;;0.45;0.30;;;21.40;32.40;;;;;;5039172;28;20408;-55
2021/12/08 03:36:29;;;;;;;0.30;0.25;;;21.40;32.50;;;;;;5045030;28;20341;-49
2021/12/08 03:38:54;;;;;;;0.70;0.40;;;21.40;32.60;;;;;;5042405;28;20033;-53
2021/12/08 03:41:21;;;;;;;0.65;0.40;;;21.40;32.60;;;;;;5045070;28;20025;-55
2021/12/08 03:43:46;;;;;;;0.50;0.30;;;21.40;32.70;;;;;;5048070;28;20483;-50
2021/12/08 03:46:16;;;;;;;0.85;0.40;;;21.40;32.70;;;;;;5041448;28;20033;-50
2021/12/08 03:48:47;;;;;;;1.38;0.50;;;21.40;32.80;;;;;;5053629;28;20049;-49
2021/12/08 03:51:15;;;;;;;0.50;0.25;;;21.40;32.80;;;;;;5048314;28;20522;-54
2021/12/08 03:53:40;;;;;;;1.30;0.40;;;21.40;32.80;;;;;;5040163;28;20441;-46
2021/12/08 03:56:07;;;;;;;0.88;0.50;;;21.40;32.80;;;;;;5040214;28;20049;-49
2021/12/08 03:58:33;;;;;;;0.70;0.32;;;21.40;32.80;;;;;;5052933;28;20036;-46
2021/12/08 04:00:59;;;;;;;0.60;0.30;;;21.40;32.80;;;;;;5038816;28;20021;-54
2021/12/08 04:03:28;;;;;;;0.38;0.25;;;21.40;32.90;;;;;;5053797;28;20013;-48
2021/12/08 04:05:57;;;;;;;0.43;0.30;;;21.40;32.90;;;;;;5016738;28;20037;-50
2021/12/08 04:08:31;;;;;;;0.55;0.30;;;21.40;32.90;;;;;;5035680;28;20377;-48
2021/12/08 04:10:59;;;;;;;1.02;0.40;;;21.40;32.90;;;;;;5038712;28;20394;-45
2021/12/08 04:13:30;;;;;;;0.63;0.35;;;21.40;32.90;;;;;;5037095;28;20037;-51
2021/12/08 04:15:57;;;;;;;0.63;0.28;;;21.40;32.90;;;;;;5043286;28;20025;-51
2021/12/08 04:18:23;;;;;;;0.82;0.30;;;21.40;32.90;;;;;;5049846;28;20048;-52
2021/12/08 04:20:53;;;;;;;0.88;0.40;;;21.40;32.90;;;;;;5037859;28;20112;-54
2021/12/08 04:23:22;;;;;;;1.00;0.30;;;21.40;32.90;;;;;;5045771;28;20029;-51
2021/12/08 04:25:51;;;;;;;1.05;0.38;;;21.40;32.90;;;;;;5035793;28;20013;-54
2021/12/08 04:28:21;;;;;;;0.60;0.30;;;21.40;32.90;;;;;;5047247;28;20091;-53
2021/12/08 04:30:55;;;;;;;1.48;0.60;;;21.40;32.90;;;;;;5037374;28;20375;-55
2021/12/08 04:33:23;;;;;;;0.93;0.50;;;21.40;32.90;;;;;;5049660;28;20021;-49
2021/12/08 04:35:53;;;;;;;1.00;0.32;;;21.40;33.00;;;;;;5039583;28;20098;-46
2021/12/08 04:38:31;;;;;;;0.70;0.38;;;21.30;32.90;;;;;;5040103;28;20049;-49
2021/12/08 04:41:06;;;;;;;1.10;0.40;;;21.40;32.90;;;;;;5043910;28;20487;-50
2021/12/08 04:43:48;;;;;;;0.60;0.30;;;21.30;32.90;;;;;;5044012;28;20579;-49
2021/12/08 05:00:14;;;;;;;0.40;0.20;;;21.40;32.90;;;;;;5044958;28;20017;-50
2021/12/08 05:09:59;;;;;;;0.70;0.38;;;21.30;32.80;;;;;;5040668;28;20048;-50
2021/12/08 05:12:31;;;;;;;0.50;0.38;;;21.30;32.70;;;;;;5038271;28;20106;-49
2021/12/08 05:15:02;;;;;;;1.13;0.30;;;21.30;32.70;;;;;;5036906;28;20029;-55
2021/12/08 05:17:33;;;;;;;0.60;0.30;;;21.30;32.70;;;;;;5043543;28;20033;-48
2021/12/08 05:20:12;;;;;;;0.50;0.30;;;21.30;32.60;;;;;;5038001;28;20034;-51
2021/12/08 05:22:45;;;;;;;0.82;0.45;;;21.30;33.20;;;;;;5040453;28;20024;-49
2021/12/08 05:25:15;;;;;;;0.60;0.30;;;21.30;32.60;;;;;;5036116;28;20429;-50
2021/12/08 05:27:46;;;;;;;0.30;0.20;;;21.30;32.60;;;;;;5048429;28;20035;-52
2021/12/08 05:30:24;;;;;;;0.57;0.30;;;21.30;32.60;;;;;;5039030;28;20017;-51
2021/12/08 05:32:51;;;;;;;0.95;0.32;;;21.30;32.50;;;;;;5039689;28;20029;-49
2021/12/08 05:35:18;;;;;;;0.77;0.40;;;21.20;32.50;;;;;;5039725;28;20474;-49
2021/12/08 05:37:46;;;;;;;1.77;0.60;;;21.20;32.50;;;;;;5043098;28;20340;-48
2021/12/08 05:40:18;;;;;;;0.95;0.40;;;21.30;32.50;;;;;;5022014;28;20026;-51
2021/12/08 05:42:44;;;;;;;1.38;0.40;;;21.30;32.50;;;;;;5037285;28;20037;-51
2021/12/08 05:45:14;;;;;;;1.05;0.30;;;21.20;32.50;;;;;;5038366;28;20056;-52
2021/12/08 05:47:43;;;;;;;1.00;0.50;;;21.20;32.50;;;;;;5046090;28;20369;-51
2021/12/08 05:50:12;;;;;;;1.05;0.40;;;21.20;32.50;;;;;;5021756;28;20329;-54
2021/12/08 05:52:38;;;;;;;2.30;0.32;;;21.20;32.50;;;;;;5049358;28;20017;-52
2021/12/08 05:55:07;;;;;;;0.60;0.40;;;21.20;32.50;;;;;;5041936;28;20408;-52
2021/12/08 05:57:36;;;;;;;1.38;0.35;;;21.20;32.50;;;;;;5025928;28;20026;-50
2021/12/08 06:00:20;;;;;;;0.68;0.40;;;21.20;32.40;;;;;;5038954;28;20120;-53
2021/12/08 06:02:46;;;;;;;0.80;0.40;;;21.30;32.40;;;;;;5035227;28;20025;-52
2021/12/08 06:05:14;;;;;;;0.60;0.30;;;21.20;32.40;;;;;;5051511;28;20021;-53
2021/12/08 06:07:42;;;;;;;1.10;0.40;;;21.20;32.40;;;;;;5034228;28;20026;-49
2021/12/08 06:10:18;;;;;;;0.90;0.52;;;21.20;32.30;;;;;;5036661;28;20029;-48
2021/12/08 06:12:45;;;;;;;0.40;0.30;;;21.20;32.30;;;;;;5016968;28;20399;-56
2021/12/08 06:15:12;;;;;;;1.02;0.60;;;21.20;32.30;;;;;;5038719;28;20040;-48
2021/12/08 06:17:39;;;;;;;0.85;0.57;;;21.20;32.30;;;;;;5038664;28;20437;-51
2021/12/08 06:20:07;;;;;;;1.10;0.43;;;21.20;32.30;;;;;;5051366;28;20045;-55
2021/12/08 06:22:33;;;;;;;1.25;0.50;;;21.20;32.20;;;;;;5038972;28;20025;-52
2021/12/08 06:24:59;;;;;;;0.73;0.40;;;21.20;32.30;;;;;;5054479;28;20039;-49
2021/12/08 06:27:25;;;;;;;1.33;0.47;;;21.20;32.20;;;;;;5049786;28;20020;-50
2021/12/08 06:29:50;;;;;;;1.02;0.30;;;21.20;32.30;;;;;;5035836;28;20118;-48
2021/12/08 06:32:17;;;;;;;1.77;0.55;;;21.20;32.20;;;;;;5040523;28;20047;-50
2021/12/08 06:34:49;;;;;;;1.02;0.35;;;21.20;32.20;;;;;;5047814;28;20045;-56
2021/12/08 06:37:19;;;;;;;0.93;0.57;;;21.20;32.30;;;;;;5045603;28;20048;-52
2021/12/08 06:39:58;;;;;;;2.25;0.50;;;21.20;32.30;;;;;;5040843;28;20436;-54
2021/12/08 06:42:29;;;;;;;1.02;0.43;;;21.10;32.20;;;;;;5051182;28;20060;-48
2021/12/08 06:44:55;;;;;;;0.98;0.30;;;21.10;32.20;;;;;;5051031;28;20393;-53
2021/12/08 06:47:26;;;;;;;1.00;0.57;;;21.10;32.20;;;;;;5054518;28;20471;-53
2021/12/08 06:49:54;;;;;;;1.60;0.68;;;21.10;32.20;;;;;;5030120;28;20021;-50
2021/12/08 06:52:26;;;;;;;0.60;0.30;;;21.10;32.10;;;;;;5047067;28;20031;-50
2021/12/08 06:54:59;;;;;;;1.17;0.35;;;21.10;32.10;;;;;;5048888;28;20023;-50
2021/12/08 06:57:38;;;;;;;0.60;0.35;;;21.10;32.10;;;;;;5050793;28;20031;-56
2021/12/08 07:00:22;;;;;;;1.17;0.35;;;21.10;32.10;;;;;;5041301;28;20025;-55
2021/12/08 07:03:17;;;;;;;0.80;0.40;;;21.10;32.00;;;;;;5038403;28;20459;-51
2021/12/08 07:06:05;;;;;;;0.68;0.40;;;21.10;32.10;;;;;;5045377;28;20028;-52
2021/12/08 07:08:34;;;;;;;1.77;0.50;;;21.10;32.10;;;;;;5042297;28;20036;-52
2021/12/08 07:11:01;;;;;;;1.17;0.50;;;21.10;32.00;;;;;;5042882;28;20049;-53
2021/12/08 07:13:30;;;;;;;0.85;0.40;;;21.10;32.00;;;;;;5040706;28;20079;-51
2021/12/08 07:16:13;;;;;;;0.90;0.50;;;21.10;32.00;;;;;;5049511;28;20165;-54
2021/12/08 07:18:58;;;;;;;2.83;0.65;;;21.10;32.00;;;;;;5036491;28;20033;-54
2021/12/08 07:21:36;;;;;;;1.42;0.60;;;21.10;32.00;;;;;;5045804;28;20013;-52
2021/12/08 07:24:15;;;;;;;1.45;0.50;;;21.10;32.00;;;;;;5037691;28;20045;-51
2021/12/08 07:26:42;;;;;;;0.95;0.40;;;21.10;32.00;;;;;;5038285;28;20021;-51
2021/12/08 07:29:12;;;;;;;1.35;0.50;;;21.10;32.00;;;;;;5044513;28;20021;-50
2021/12/08 07:31:48;;;;;;;1.20;0.50;;;21.00;31.90;;;;;;5056766;28;20041;-55
2021/12/08 07:34:19;;;;;;;0.70;0.30;;;21.10;31.90;;;;;;5056227;28;20052;-50
2021/12/08 07:36:48;;;;;;;0.80;0.32;;;21.10;31.90;;;;;;5050890;28;20032;-54
2021/12/08 07:39:22;;;;;;;1.85;0.70;;;21.10;31.90;;;;;;5045327;28;20061;-47
2021/12/08 07:41:53;;;;;;;1.10;0.55;;;21.10;31.80;;;;;;5038764;28;20116;-60
2021/12/08 07:44:22;;;;;;;2.05;0.50;;;21.10;31.80;;;;;;5023422;28;20044;-55
2021/12/08 07:46:52;;;;;;;0.80;0.40;;;21.00;31.80;;;;;;5043268;28;20365;-50
2021/12/08 07:49:24;;;;;;;2.58;0.80;;;21.00;31.70;;;;;;5038755;28;20040;-53
2021/12/08 07:52:05;;;;;;;2.13;0.65;;;21.00;31.80;;;;;;5040500;28;20083;-53
2021/12/08 07:54:32;;;;;;;1.95;0.60;;;21.00;31.80;;;;;;5036678;28;20109;-51
2021/12/08 07:57:01;;;;;;;2.03;0.60;;;21.00;32.00;;;;;;5045808;28;20044;-49
2021/12/08 07:59:27;;;;;;;1.95;0.80;;;21.00;32.10;;;;;;5044957;28;20033;-49
2021/12/08 08:01:57;;;;;;;2.08;0.65;;;21.00;32.20;;;;;;5046938;28;20033;-48
2021/12/08 08:04:25;;;;;;;1.30;0.50;;;21.00;32.10;;;;;;5038696;28;20432;-50
2021/12/08 08:06:57;;;;;;;1.65;0.60;;;21.10;32.20;;;;;;5038279;28;20033;-51
2021/12/08 08:09:28;;;;;;;2.25;0.65;;;21.20;32.20;;;;;;5051181;28;20056;-48
2021/12/08 08:11:59;;;;;;;2.25;0.70;;;21.30;32.10;;;;;;5055084;28;20040;-50
2021/12/08 08:14:39;;;;;;;1.17;0.60;;;21.40;32.00;;;;;;5051141;28;20028;-49
2021/12/08 08:17:12;;;;;;;1.25;0.50;;;21.50;31.90;;;;;;5037570;28;20028;-51
2021/12/08 08:19:44;;;;;;;1.30;0.57;;;21.60;31.80;;;;;;5035334;28;20040;-48
2021/12/08 08:22:14;;;;;;;1.38;0.65;;;21.70;31.70;;;;;;5038534;28;20036;-50
2021/12/08 08:24:40;;;;;;;1.38;0.52;;;21.90;31.60;;;;;;5034745;28;20024;-45
2021/12/08 08:27:09;;;;;;;1.60;0.77;;;22.00;31.50;;;;;;5037840;28;20032;-51
2021/12/08 08:29:36;;;;;;;1.85;0.70;;;22.10;31.50;;;;;;5036384;28;20107;-54
2021/12/08 08:32:10;;;;;;;1.63;0.57;;;22.10;31.30;;;;;;5048074;28;20031;-49
2021/12/08 08:34:43;;;;;;;;;;;22.20;31.20;;;;;;5047263;28;20112;-50
2021/12/08 08:37:11;;;;;;;0.90;0.60;;;22.30;31.20;;;;;;5046247;28;20263;-53
2021/12/08 08:39:43;;;;;;;1.20;0.60;;;22.40;31.20;;;;;;5038947;28;20042;-57
2021/12/08 08:42:21;;;;;;;1.35;0.88;;;22.40;31.00;;;;;;5047561;28;20025;-52
2021/12/08 08:44:51;;;;;;;1.30;0.50;;;22.60;31.00;;;;;;5047794;28;20099;-54
2021/12/08 08:47:24;;;;;;;1.63;0.63;;;22.60;30.80;;;;;;5054568;28;20057;-46
2021/12/08 08:49:52;;;;;;;1.40;0.60;;;22.70;30.80;;;;;;5054454;28;20124;-52
2021/12/08 08:52:26;;;;;;;2.63;0.98;;;22.70;30.70;;;;;;5054540;28;20021;-52
2021/12/08 08:54:55;;;;;;;2.20;0.70;;;22.80;30.60;;;;;;5040505;28;20095;-48
2021/12/08 08:57:25;;;;;;;2.13;0.90;;;22.90;30.60;;;;;;5043004;28;20044;-53
2021/12/08 08:59:56;;;;;;;1.35;0.73;;;22.90;30.40;;;;;;5039661;28;20040;-50
2021/12/08 09:02:27;;;;;;;1.85;0.68;;;23.00;30.40;;;;;;5042151;28;20021;-52
2021/12/08 09:04:58;;;;;;;1.58;0.68;;;23.00;30.30;;;;;;5043729;28;20329;-52
2021/12/08 09:07:39;;;;;;;1.83;0.65;;;23.10;30.20;;;;;;5036869;28;20067;-56
2021/12/08 09:10:12;;;;;;;1.92;0.80;;;23.20;30.10;;;;;;5054111;28;20032;-51
2021/12/08 09:12:48;;;;;;;1.63;0.80;;;23.20;30.10;;;;;;5049013;28;20033;-50
2021/12/08 09:15:20;;;;;;;2.10;0.70;;;23.30;30.00;;;;;;5052964;28;20029;-53
2021/12/08 09:17:53;;;;;;;1.52;0.68;;;23.30;30.00;;;;;;5043756;28;20062;-56
2021/12/08 09:20:56;;;;;;;1.70;0.60;;;23.40;30.00;;;;;;5038520;28;20496;-50
2021/12/08 09:24:01;;;;;;;1.70;0.70;;;23.40;30.00;;;;;;5036358;28;20057;-52
2021/12/08 09:26:30;;;;;;;1.95;0.70;;;23.50;30.00;;;;;;5034047;28;20033;-51
2021/12/08 09:29:03;;;;;;;2.00;0.80;;;23.50;30.00;;;;;;5034357;28;20032;-56
2021/12/08 09:31:45;;;;;;;1.48;0.70;;;23.50;30.00;;;;;;5043919;28;20487;-50
2021/12/08 09:34:17;;;;;;;1.75;0.82;;;23.50;29.90;;;;;;5033493;28;20037;-54
2021/12/08 09:36:47;;;;;;;1.92;0.70;;;23.50;29.90;;;;;;5045262;28;20041;-52
2021/12/08 09:39:23;;;;;;;2.60;0.80;;;23.50;29.90;;;;;;5041599;28;20432;-57
2021/12/08 09:41:55;;;;;;;1.95;0.82;;;23.60;29.80;;;;;;5037248;28;20061;-52
2021/12/08 09:44:30;;;;;;;1.95;0.52;;;23.60;29.70;;;;;;5038083;28;20040;-47
2021/12/08 09:46:57;;;;;;;1.20;0.65;;;23.70;29.70;;;;;;5043243;28;20444;-52
2021/12/08 09:49:26;;;;;;;1.27;0.70;;;23.70;29.60;;;;;;5034806;28;20033;-48
2021/12/08 09:51:54;;;;;;;1.02;0.60;;;23.70;29.60;;;;;;5039546;28;20040;-51
2021/12/08 09:54:20;;;;;;;0.82;0.50;;;23.70;29.60;;;;;;5038190;28;20044;-55
2021/12/08 09:56:49;;;;;;;1.50;0.50;;;23.70;29.50;;;;;;5043795;28;20073;-47
2021/12/08 09:59:16;;;;;;;2.13;0.60;;;23.70;29.50;;;;;;5037447;28;20084;-51
2021/12/08 10:01:44;;;;;;;0.63;0.40;;;23.70;29.50;;;;;;5040951;28;20302;-56
2021/12/08 10:04:12;;;;;;;1.73;0.63;;;23.80;29.50;;;;;;5019997;28;20440;-53
2021/12/08 10:06:41;;;;;;;1.20;0.50;;;23.80;29.40;;;;;;5026323;28;20017;-51
2021/12/08 10:09:07;;;;;;;1.55;0.68;;;23.80;29.40;;;;;;5042810;28;20056;-52
2021/12/08 10:11:34;;;;;;;3.38;0.70;;;23.80;29.30;;;;;;5045008;28;20033;-51
2021/12/08 10:14:02;;;;;;;1.48;0.73;;;23.80;29.30;;;;;;5043209;28;20040;-53
2021/12/08 10:16:29;;;;;;;1.35;0.52;;;23.80;29.30;;;;;;5045944;28;20104;-51
2021/12/08 10:18:56;;;;;;;0.85;0.43;;;23.70;29.20;;;;;;5050912;28;20041;-47
2021/12/08 10:21:36;;;;;;;1.42;0.63;;;23.70;29.20;;;;;;5044382;28;20022;-49
2021/12/08 10:24:17;;;;;;;1.27;0.50;;;23.70;29.20;;;;;;5041113;28;20021;-50
2021/12/08 10:26:44;;;;;;;1.17;0.60;;;23.70;29.20;;;;;;5045677;28;20037;-53
2021/12/08 10:29:10;;;;;;;1.63;0.60;;;23.60;29.20;;;;;;5039815;28;20025;-49
2021/12/08 10:31:45;;;;;;;1.70;0.60;;;23.60;29.20;;;;;;5045687;28;20026;-50
2021/12/08 10:37:01;;;;;;;1.45;0.60;;;23.60;29.20;;;;;;5045894;28;20043;-52
2021/12/08 10:39:49;;;;;;;1.02;0.60;;;23.60;29.20;;;;;;5054907;28;20071;-53
2021/12/08 10:42:26;;;;;;;1.25;0.40;;;23.60;29.20;;;;;;5049412;28;20029;-57
2021/12/08 10:47:54;;;;;;;1.67;0.67;;;23.60;29.20;;;;;;5037889;28;20087;-51
2021/12/08 10:56:16;;;;;;;0.65;0.40;;;23.50;29.10;;;;;;5039964;28;20499;-50
2021/12/08 10:58:50;;;;;;;1.50;0.63;;;23.60;29.20;;;;;;5047656;28;20486;-53
2021/12/08 11:01:24;;;;;;;0.77;0.50;;;23.50;29.20;;;;;;5038891;28;20029;-51
2021/12/08 11:03:59;;;;;;;1.30;0.55;;;23.50;29.20;;;;;;5048608;28;20029;-53
2021/12/08 11:06:29;;;;;;;;;;;23.50;29.20;;;;;;5048876;28;20022;-52
2021/12/08 11:08:56;;;;;;;1.30;0.60;;;23.50;29.30;;;;;;5039756;28;19913;-49
2021/12/08 11:11:32;;;;;;;0.90;0.43;;;23.50;29.30;;;;;;5042535;28;20033;-47
2021/12/08 11:14:04;;;;;;;1.63;0.50;;;23.50;29.30;;;;;;5048599;28;20029;-49
2021/12/08 11:16:38;;;;;;;1.38;0.52;;;23.50;29.30;;;;;;5050528;28;20041;-50
2021/12/08 11:19:10;;;;;;;0.95;0.40;;;23.50;29.30;;;;;;5032218;28;20045;-56
2021/12/08 11:21:41;;;;;;;2.13;0.77;;;23.50;29.30;;;;;;5038448;28;20094;-50
2021/12/08 11:24:30;;;;;;;0.93;0.38;;;23.50;29.30;;;;;;5021378;28;20025;-51
2021/12/08 11:26:58;;;;;;;0.90;0.50;;;23.50;29.30;;;;;;5047359;28;20017;-46
2021/12/08 11:29:26;;;;;;;1.60;0.60;;;23.50;29.30;;;;;;5046125;28;20013;-50
2021/12/08 11:32:03;;;;;;;1.58;0.60;;;23.50;29.40;;;;;;5039781;28;20725;-48
2021/12/08 11:34:32;;;;;;;1.00;0.50;;;23.50;29.40;;;;;;5044882;28;20464;-49
2021/12/08 11:37:07;;;;;;;0.80;0.50;;;23.40;29.40;;;;;;5045312;28;20028;-52
2021/12/08 11:39:38;;;;;;;1.52;0.70;;;23.40;29.40;;;;;;5056400;28;20075;-51
2021/12/08 11:42:17;;;;;;;1.10;0.52;;;23.40;29.50;;;;;;5056724;28;20108;-52
2021/12/08 11:44:51;;;;;;;1.60;0.50;;;23.50;30.00;;;;;;5055792;28;20390;-47
2021/12/08 11:47:21;;;;;;;1.53;0.70;;;23.40;29.50;;;;;;5049303;28;20086;-50
2021/12/08 11:49:50;;;;;;;2.00;0.60;;;23.40;29.50;;;;;;5045192;28;20405;-55
2021/12/08 11:52:23;;;;;;;1.77;0.82;;;23.40;29.50;;;;;;5039876;28;20433;-55
2021/12/08 11:55:00;;;;;;;2.10;0.77;;;23.50;29.50;;;;;;5047475;28;20344;-53
2021/12/08 11:57:33;;;;;;;2.65;0.90;;;23.40;29.50;;;;;;5054351;28;20112;-48
2021/12/08 12:00:16;;;;;;;1.67;0.70;;;23.40;29.50;;;;;;5045811;28;20459;-57
2021/12/08 12:02:45;;;;;;;0.82;0.52;;;23.50;29.60;;;;;;5022655;28;20337;-51
2021/12/08 12:05:19;;;;;;;2.15;0.88;;;23.50;29.70;;;;;;5042093;28;21669;-49
2021/12/08 12:07:46;;;;;;;1.52;0.77;;;23.50;29.70;;;;;;5035554;28;20375;-54
2021/12/08 12:10:15;;;;;;;2.15;0.77;;;23.50;29.70;;;;;;5037992;28;20017;-50
2021/12/08 12:12:42;;;;;;;1.35;0.70;;;23.50;29.80;;;;;;5036004;28;20456;-52
2021/12/08 12:15:10;;;;;;;1.50;0.80;;;23.50;29.80;;;;;;5043032;28;20436;-49
2021/12/08 12:17:36;;;;;;;1.83;0.65;;;23.60;29.90;;;;;;5046780;28;20025;-55
2021/12/08 12:20:16;;;;;;;1.05;0.50;;;23.60;29.80;;;;;;5050298;28;20056;-51
2021/12/08 12:22:57;;;;;;;1.33;0.60;;;23.60;29.80;;;;;;5041731;28;20025;-55
2021/12/08 12:25:34;;;;;;;1.00;0.60;;;23.60;29.80;;;;;;5037856;28;20025;-60
2021/12/08 12:28:28;;;;;;;1.70;0.52;;;23.60;29.80;;;;;;5042240;28;20021;-52
2021/12/08 12:31:17;;;;;;;1.70;0.50;;;23.70;29.80;;;;;;5039207;28;20021;-48
2021/12/08 12:33:44;;;;;;;0.93;0.40;;;23.60;29.80;;;;;;5022870;28;20036;-50
2021/12/08 12:36:27;;;;;;;0.75;0.40;;;23.70;29.80;;;;;;5038927;28;20024;-52
2021/12/08 12:39:10;;;;;;;0.98;0.40;;;23.70;29.70;;;;;;5050368;28;20033;-54
2021/12/08 12:41:36;;;;;;;1.05;0.50;;;23.70;29.70;;;;;;5048849;28;20451;-54
2021/12/08 12:44:20;;;;;;;1.05;0.57;;;23.70;29.70;;;;;;5048580;28;20021;-54
2021/12/08 12:47:24;;;;;;;1.00;0.40;;;23.70;29.60;;;;;;5044723;28;20029;-55
2021/12/08 12:50:11;;;;;;;0.47;0.30;;;23.70;29.60;;;;;;5000983;28;20040;-52
2021/12/08 12:52:40;;;;;;;1.23;0.60;;;23.70;29.70;;;;;;5046487;28;20013;-54
2021/12/08 12:55:15;;;;;;;2.13;0.60;;;23.70;29.80;;;;;;5038845;28;20027;-51
2021/12/08 12:58:06;;;;;;;2.10;0.60;;;23.70;29.90;;;;;;5047302;28;20044;-51
2021/12/08 13:00:49;;;;;;;1.50;0.50;;;23.80;30.00;;;;;;5046130;28;20120;-55
2021/12/08 13:03:35;;;;;;;1.42;0.65;;;23.80;30.00;;;;;;5048116;28;20037;-48
2021/12/08 13:06:01;;;;;;;;;;;23.80;30.00;;;;;;5034897;28;20036;-57
2021/12/08 13:08:39;;;;;;;1.88;0.57;;;23.80;30.10;;;;;;5050671;28;19905;-57
2021/12/08 13:11:30;;;;;;;1.52;0.77;;;23.80;30.10;;;;;;5048468;28;20040;-54
2021/12/08 13:13:57;;;;;;;0.90;0.50;;;23.80;30.10;;;;;;5051249;28;20025;-54
2021/12/08 13:16:27;;;;;;;0.50;0.30;;;23.90;30.20;;;;;;5043937;28;20028;-53
2021/12/08 13:19:02;;;;;;;0.98;0.45;;;23.90;30.10;;;;;;5051251;28;20033;-57
2021/12/08 13:21:48;;;;;;;1.10;0.30;;;23.90;30.00;;;;;;5049545;28;20043;-57
2021/12/08 13:24:36;;;;;;;1.67;0.60;;;23.90;30.00;;;;;;5034855;28;20022;-50
2021/12/08 13:27:06;;;;;;;1.48;0.60;;;24.00;30.00;;;;;;5033529;28;20068;-49
2021/12/08 13:29:35;;;;;;;0.75;0.40;;;24.00;30.00;;;;;;5032287;28;20405;-49
2021/12/08 13:32:12;;;;;;;1.17;0.32;;;24.00;30.00;;;;;;5014199;28;20381;-48
2021/12/08 13:34:41;;;;;;;1.17;0.47;;;24.00;30.00;;;;;;5032958;28;20020;-47
2021/12/08 13:37:21;;;;;;;1.83;0.40;;;24.00;30.00;;;;;;5052800;28;20021;-51
2021/12/08 13:39:50;;;;;;;1.20;0.50;;;24.10;30.00;;;;;;5052109;28;20039;-50
2021/12/08 13:42:26;;;;;;;1.05;0.50;;;24.10;30.00;;;;;;5051965;28;20017;-51
2021/12/08 13:44:53;;;;;;;0.77;0.40;;;24.00;29.90;;;;;;5048973;28;20032;-50
2021/12/08 13:47:31;;;;;;;0.45;0.32;;;24.10;29.90;;;;;;5053287;28;20025;-47
2021/12/08 13:50:12;;;;;;;0.73;0.40;;;24.10;29.80;;;;;;5053321;28;20021;-55
2021/12/08 13:53:06;;;;;;;1.33;0.50;;;24.10;29.80;;;;;;5049429;28;20100;-53
2021/12/08 13:55:34;;;;;;;1.55;0.40;;;24.10;29.70;;;;;;5049718;28;20049;-49
2021/12/08 13:58:04;;;;;;;0.50;0.30;;;24.10;29.70;;;;;;5041015;28;20029;-49
2021/12/08 14:00:40;;;;;;;0.77;0.30;;;24.00;29.60;;;;;;5043905;28;20033;-46
2021/12/08 14:03:41;;;;;;;0.95;0.45;;;24.00;29.60;;;;;;5034607;28;20033;-46
2021/12/08 14:06:09;;;;;;;0.32;0.20;;;24.00;29.50;;;;;;5037894;28;20416;-47